Time;durP1;ratioP1;P1;durP2;ratioP2;P2;SDS_P1;SDS_P2;PMS_P1;PMS_P2;Temp;Humidity;BMP_temperature;BMP_pressure;BME280_temperature;BME280_humidity;BME280_pressure;Samples;Min_cycle;Max_cycle;Signal;HPM_P1;HPM_P2
2020/12/26 00:04:45;;;;;;;57.88;30.95;;;;;;;7.43;63.99;99958.49;2334587;82;25776;-91
2020/12/26 00:32:08;;;;;;;42.10;22.27;;;;;;;7.24;63.69;99952.75;2393406;78;25818;-86
2020/12/26 00:40:10;;;;;;;28.87;18.50;;;;;;;7.19;63.64;99954.72;2354007;81;26240;-86
2020/12/26 00:44:10;;;;;;;31.62;18.70;;;;;;;7.16;63.61;99952.95;2395403;79;26194;-86
2020/12/26 00:48:11;;;;;;;28.47;16.55;;;;;;;7.16;63.60;99953.37;2274986;82;25822;-86
2020/12/26 00:52:04;;;;;;;30.65;17.48;;;;;;;7.14;63.54;99953.30;2247428;84;26052;-85
2020/12/26 01:00:00;;;;;;;23.83;15.55;;;;;;;7.12;63.52;99953.69;2058384;91;26048;-86
2020/12/26 01:21:36;;;;;;;16.60;10.93;;;;;;;6.98;63.40;99960.14;2386250;78;27199;-86
2020/12/26 01:48:39;;;;;;;10.68;8.18;;;;;;;6.84;63.34;99971.37;2298986;81;25435;-91
2020/12/26 01:52:30;;;;;;;10.55;7.67;;;;;;;6.80;63.32;99968.22;2292902;84;26024;-86
2020/12/26 01:56:15;;;;;;;7.47;6.72;;;;;;;6.78;63.35;99977.64;2296251;84;25766;-89
2020/12/26 02:18:05;;;;;;;5.85;5.12;;;;;;;6.56;63.30;99979.55;2324646;81;25726;-85
2020/12/26 02:22:14;;;;;;;7.25;4.95;;;;;;;6.54;63.30;99984.20;2304026;80;25737;-89
2020/12/26 02:31:04;;;;;;;6.12;4.10;;;;;;;6.51;63.29;99993.16;2324002;83;25819;-90
2020/12/26 02:48:38;;;;;;;3.35;2.90;;;;;;;6.42;63.35;99996.33;2326370;77;27582;-92
2020/12/26 02:51:59;;;;;;;3.92;3.15;;;;;;;6.42;63.32;100003.23;2350389;81;25655;-92
2020/12/26 02:55:36;;;;;;;3.75;3.20;;;;;;;6.41;63.29;99994.97;2356090;81;26255;-91
2020/12/26 02:59:07;;;;;;;3.87;3.33;;;;;;;6.38;63.30;99986.71;2337019;81;25653;-87
2020/12/26 03:07:14;;;;;;;3.35;3.05;;;;;;;6.34;63.31;99995.17;2351393;81;26277;-90
2020/12/26 03:10:35;;;;;;;3.42;2.67;;;;;;;6.32;63.27;99999.02;2346555;81;25695;-92
2020/12/26 03:14:11;;;;;;;3.05;2.50;;;;;;;6.31;63.24;99997.66;2374898;82;25647;-86
2020/12/26 03:17:41;;;;;;;3.50;3.20;;;;;;;6.29;63.23;100000.20;2354544;82;25705;-91
2020/12/26 03:21:03;;;;;;;3.33;3.02;;;;;;;6.27;63.25;100004.86;2365165;82;25672;-89
2020/12/26 03:24:25;;;;;;;3.77;2.42;;;;;;;6.25;63.22;100011.70;2369127;83;25924;-90
2020/12/26 03:27:47;;;;;;;2.42;2.15;;;;;;;6.24;63.24;100009.50;2368413;83;25382;-90
2020/12/26 03:31:08;;;;;;;3.98;2.45;;;;;;;6.23;63.24;100013.34;2368739;83;25533;-90
2020/12/26 03:34:29;;;;;;;3.80;2.05;;;;;;;6.22;63.24;100009.88;2376272;82;26134;-91
2020/12/26 03:38:04;;;;;;;2.77;2.30;;;;;;;6.20;63.20;100014.53;2349356;81;26229;-89
2020/12/26 03:41:26;;;;;;;2.60;1.90;;;;;;;6.18;63.22;100023.55;2340711;81;25589;-86
2020/12/26 03:45:35;;;;;;;2.70;2.33;;;;;;;6.16;63.24;100021.31;2361206;81;25691;-87
2020/12/26 03:53:32;;;;;;;2.25;1.90;;;;;;;6.13;63.23;100018.61;2343873;81;26097;-91
2020/12/26 03:57:02;;;;;;;2.85;2.50;;;;;;;6.11;63.26;100025.04;2365154;81;25599;-88
2020/12/26 04:00:24;;;;;;;3.25;2.70;;;;;;;6.11;63.26;100035.39;2366361;81;25809;-92
2020/12/26 04:04:37;;;;;;;2.20;2.00;;;;;;;6.11;63.27;100035.81;2363193;82;25671;-88
2020/12/26 04:08:06;;;;;;;2.83;2.45;;;;;;;6.09;63.26;100027.97;2351802;81;25785;-87
2020/12/26 04:11:28;;;;;;;2.22;2.02;;;;;;;6.08;63.26;100033.11;2369078;82;25896;-86
2020/12/26 04:18:46;;;;;;;2.05;1.62;;;;;;;6.05;63.25;100036.46;2346117;82;25937;-90
2020/12/26 04:22:35;;;;;;;3.25;2.20;;;;;;;6.04;63.23;100036.39;2360384;82;26156;-91
2020/12/26 04:35:10;;;;;;;2.70;2.33;;;;;;;5.95;63.23;100039.95;2355961;81;26462;-90
2020/12/26 04:38:35;;;;;;;2.62;2.42;;;;;;;5.94;63.26;100045.55;2357237;80;26332;-87
2020/12/26 04:47:18;;;;;;;2.33;1.90;;;;;;;5.92;63.28;100054.91;2413861;78;26560;-86
2020/12/26 04:54:54;;;;;;;2.15;1.95;;;;;;;5.92;63.33;100047.16;2450834;79;25842;-90
2020/12/26 04:58:19;;;;;;;2.75;1.95;;;;;;;5.92;63.30;100044.56;2455779;79;25717;-90
2020/12/26 05:01:41;;;;;;;1.98;1.77;;;;;;;5.93;63.31;100039.00;2462671;79;25429;-90
2020/12/26 05:05:12;;;;;;;2.77;2.12;;;;;;;5.93;63.29;100038.59;2456821;79;25837;-86
2020/12/26 05:09:02;;;;;;;2.37;1.80;;;;;;;5.98;63.29;100046.12;2543095;76;26926;-86
2020/12/26 05:13:05;;;;;;;3.95;2.50;;;;;;;5.93;63.27;100045.06;2493290;78;25894;-91
2020/12/26 05:17:08;;;;;;;2.42;1.85;;;;;;;5.94;63.29;100048.52;2481123;78;25682;-91
2020/12/26 05:20:44;;;;;;;2.60;2.15;;;;;;;5.95;63.31;100042.55;2485156;78;25920;-86
2020/12/26 05:24:17;;;;;;;2.37;2.00;;;;;;;5.94;63.31;100048.14;2492578;78;26014;-87
2020/12/26 05:27:39;;;;;;;2.80;1.87;;;;;;;5.95;63.32;100050.30;2490220;78;25562;-89
2020/12/26 05:31:07;;;;;;;5.10;2.00;;;;;;;5.97;63.28;100060.28;2491311;78;25601;-85
2020/12/26 05:34:38;;;;;;;2.12;1.72;;;;;;;5.97;63.27;100057.28;2500690;78;25469;-90
2020/12/26 05:38:19;;;;;;;2.65;1.67;;;;;;;5.99;63.29;100059.52;2489584;78;25977;-90
2020/12/26 05:41:44;;;;;;;1.90;1.70;;;;;;;6.00;63.29;100064.28;2479724;77;26302;-90
2020/12/26 05:58:36;;;;;;;2.90;2.30;;;;;;;6.04;63.27;100073.91;2288366;79;26166;-86
2020/12/26 06:02:59;;;;;;;3.05;2.60;;;;;;;6.04;63.26;100069.64;2299739;84;26095;-92
2020/12/26 06:06:38;;;;;;;2.30;1.75;;;;;;;6.05;63.24;100073.11;2335087;82;25976;-87
2020/12/26 06:10:01;;;;;;;2.37;2.17;;;;;;;6.05;63.25;100080.45;2310718;84;25733;-88
2020/12/26 06:13:36;;;;;;;2.72;1.82;;;;;;;6.07;63.24;100087.84;2349037;82;25899;-86
2020/12/26 06:22:38;;;;;;;3.05;2.47;;;;;;;6.08;63.23;100087.03;2336744;83;25696;-85
2020/12/26 06:26:01;;;;;;;2.72;2.15;;;;;;;6.08;63.18;100083.58;2311652;84;25786;-86
2020/12/26 06:29:37;;;;;;;3.20;2.62;;;;;;;6.09;63.20;100093.09;2328139;83;25898;-86
2020/12/26 06:32:58;;;;;;;3.47;2.17;;;;;;;6.07;63.20;100081.37;2325545;84;25657;-85
2020/12/26 06:36:33;;;;;;;2.52;1.87;;;;;;;6.08;63.18;100092.21;2331898;84;25701;-91
2020/12/26 06:40:35;;;;;;;3.27;2.90;;;;;;;6.09;63.18;100087.50;2332576;84;25692;-89
2020/12/26 06:43:58;;;;;;;2.25;2.02;;;;;;;6.09;63.18;100102.14;2307597;85;25758;-86
2020/12/26 06:47:38;;;;;;;2.50;2.27;;;;;;;6.10;63.16;100117.72;2330550;83;26118;-86
2020/12/26 06:51:42;;;;;;;2.25;2.05;;;;;;;6.09;63.14;100108.62;2303577;85;26078;-85
2020/12/26 06:55:03;;;;;;;2.75;2.25;;;;;;;6.09;63.15;100120.27;2345137;83;25674;-87
2020/12/26 06:58:44;;;;;;;2.30;2.00;;;;;;;6.10;63.13;100118.14;2303027;83;26149;-85
2020/12/26 07:02:09;;;;;;;2.75;1.87;;;;;;;6.09;63.16;100128.91;2326321;83;25946;-88
2020/12/26 07:05:38;;;;;;;2.10;1.87;;;;;;;6.11;63.14;100125.97;2319918;84;25593;-89
2020/12/26 07:08:59;;;;;;;2.65;2.45;;;;;;;6.11;63.13;100123.80;2326816;84;25718;-88
2020/12/26 07:12:21;;;;;;;3.42;2.37;;;;;;;6.12;63.12;100131.61;2308331;84;25715;-86
2020/12/26 07:15:58;;;;;;;2.72;2.52;;;;;;;6.12;63.11;100129.02;2348381;83;25512;-88
2020/12/26 07:19:27;;;;;;;2.40;2.20;;;;;;;6.13;63.11;100132.48;2348258;83;25230;-90
2020/12/26 07:23:12;;;;;;;2.87;2.42;;;;;;;6.14;63.10;100139.42;2343014;82;26107;-91
2020/12/26 07:32:02;;;;;;;5.12;2.70;;;;;;;6.17;63.09;100146.42;2342069;84;25662;-87
2020/12/26 07:35:40;;;;;;;2.72;2.00;;;;;;;6.19;63.08;100156.44;2299225;85;25577;-84
2020/12/26 07:39:45;;;;;;;3.87;2.87;;;;;;;6.18;63.04;100156.84;2334492;82;26179;-88
2020/12/26 07:43:32;;;;;;;2.60;2.40;;;;;;;6.21;63.04;100153.09;2303639;82;25760;-89
2020/12/26 07:47:09;;;;;;;2.37;2.15;;;;;;;6.27;63.01;100155.00;2288045;85;26178;-89
2020/12/26 07:56:20;;;;;;;;;;;;;;;;;;;;;
2020/12/26 08:00:07;;;;;;;4.45;2.52;;;;;;;6.76;62.78;100173.20;2196027;88;25862;-89
2020/12/26 08:03:31;;;;;;;4.80;3.45;;;;;;;7.33;62.23;100184.23;2210890;88;25907;-92
2020/12/26 08:12:26;;;;;;;2.27;2.00;;;;;;;7.53;61.68;100180.59;2128144;90;26501;-86
2020/12/26 08:16:06;;;;;;;2.10;2.00;;;;;;;7.79;61.43;100194.79;2137202;91;26070;-90
2020/12/26 08:19:48;;;;;;;2.35;1.45;;;;;;;8.02;61.03;100189.02;2134651;91;25785;-87
2020/12/26 08:33:07;;;;;;;2.92;2.15;;;;;;;8.17;60.40;100198.59;2227861;86;25728;-91
2020/12/26 08:36:42;;;;;;;2.70;2.50;;;;;;;8.20;60.22;100206.87;2186687;89;26089;-83
2020/12/26 08:40:28;;;;;;;4.45;3.27;;;;;;;8.25;60.20;100215.70;2183271;88;26029;-86
2020/12/26 08:49:09;;;;;;;3.62;3.27;;;;;;;8.58;61.75;100217.15;2271796;83;25577;-84
2020/12/26 08:53:11;;;;;;;3.75;3.40;;;;;;;8.43;62.16;100230.97;2288415;85;26222;-87
2020/12/26 08:56:38;;;;;;;3.72;3.42;;;;;;;8.35;62.30;100229.84;2278218;85;25797;-87
2020/12/26 09:09:38;;;;;;;;;;;;;;;8.20;62.83;100247.12;2212981;85;26414;-86
2020/12/26 09:17:34;;;;;;;4.28;3.37;;;;;;;8.02;63.13;100257.40;2207272;85;25784;-86
2020/12/26 09:25:33;;;;;;;3.52;3.20;;;;;;;7.95;63.29;100271.02;2207451;86;25746;-84
2020/12/26 09:33:56;;;;;;;3.37;3.08;;;;;;;7.95;63.40;100263.66;2233952;84;25760;-85
2020/12/26 09:37:17;;;;;;;3.65;3.35;;;;;;;7.95;63.53;100260.63;2281176;85;25660;-87
2020/12/26 09:40:39;;;;;;;3.55;3.25;;;;;;;7.98;63.41;100263.75;2312008;84;25933;-86
2020/12/26 09:44:00;;;;;;;3.90;3.20;;;;;;;8.01;63.50;100271.22;2285735;85;25700;-86
2020/12/26 09:47:22;;;;;;;5.40;3.62;;;;;;;8.02;63.43;100275.57;2312126;83;25591;-86
2020/12/26 09:50:46;;;;;;;5.25;3.80;;;;;;;8.02;63.48;100270.38;2288425;86;25671;-87
2020/12/26 09:54:11;;;;;;;4.03;3.62;;;;;;;8.02;63.57;100276.00;2294839;83;25676;-87
2020/12/26 10:02:44;;;;;;;5.15;3.72;;;;;;;8.09;63.60;100279.67;2320147;80;25934;-87
2020/12/26 10:15:13;;;;;;;4.75;4.30;;;;;;;8.18;63.17;100287.76;2294896;84;26042;-84
2020/12/26 10:23:59;;;;;;;3.75;3.37;;;;;;;8.14;62.96;100284.19;2278496;85;26097;-86
2020/12/26 10:59:56;;;;;;;5.60;5.05;;;;;;;8.31;63.29;100294.23;2380193;77;26843;-86
2020/12/26 11:55:01;;;;;;;14.25;5.90;;;;;;;8.52;63.39;100301.41;2287307;82;26737;-81
2020/12/26 11:59:37;;;;;;;;;;;;;;;;;;;;;
2020/12/26 12:03:35;;;;;;;11.07;5.33;;;;;;;9.23;65.51;100299.13;2182326;88;25701;-84
2020/12/26 13:10:05;;;;;;;11.40;6.22;;;;;;;9.69;63.09;100339.42;2253339;81;26970;31
2020/12/26 13:14:46;;;;;;;;;;;;;;;;;;;;;
2020/12/26 13:22:50;;;;;;;6.75;6.22;;;;;;;9.72;62.60;100348.61;2082500;91;25805;-86
2020/12/26 13:50:24;;;;;;;6.20;5.45;;;;;;;9.07;63.90;100368.45;2318839;80;26337;-90
2020/12/26 13:54:28;;;;;;;5.92;5.45;;;;;;;9.24;63.99;100372.42;2326885;82;26085;-83
2020/12/26 13:58:29;;;;;;;6.00;5.40;;;;;;;9.19;63.72;100372.30;2294742;80;25741;-81
2020/12/26 14:06:59;;;;;;;6.17;5.58;;;;;;;9.06;63.67;100392.28;2292241;84;26167;-91
2020/12/26 14:11:02;;;;;;;7.17;6.50;;;;;;;8.99;63.68;100400.73;2277932;84;25755;-93
2020/12/26 14:14:57;;;;;;;10.65;6.20;;;;;;;8.92;63.71;100409.19;2280804;84;25679;-81
2020/12/26 14:18:32;;;;;;;13.78;6.33;;;;;;;8.85;63.74;100402.92;2287277;84;26249;-90
2020/12/26 14:22:04;;;;;;;9.83;6.45;;;;;;;8.85;64.16;100408.55;2288361;84;26243;-83
2020/12/26 14:26:00;;;;;;;10.53;6.80;;;;;;;8.81;64.03;100407.95;2284203;84;25799;-87
2020/12/26 14:33:38;;;;;;;10.88;7.25;;;;;;;8.66;64.08;100413.15;2171108;87;26425;-87
2020/12/26 14:52:39;;;;;;;25.75;12.58;;;;;;;8.15;63.95;100426.16;2336875;79;26177;-88
2020/12/26 14:56:00;;;;;;;14.83;8.65;;;;;;;8.01;63.61;100439.09;2349608;82;26053;-86
2020/12/26 15:00:01;;;;;;;9.25;7.67;;;;;;;7.91;63.47;100440.48;2348640;82;26192;-87
2020/12/26 15:03:24;;;;;;;7.92;6.92;;;;;;;7.81;63.44;100437.09;2351880;82;25709;-84
2020/12/26 15:06:59;;;;;;;11.35;7.40;;;;;;;7.70;63.40;100447.09;2349077;82;26278;-86
2020/12/26 15:15:53;;;;;;;10.80;7.60;;;;;;;7.52;63.11;100447.28;2323073;82;26029;-86
2020/12/26 15:30:31;;;;;;;11.47;6.47;;;;;;;7.16;62.91;100436.86;2438526;79;26733;-92
2020/12/26 15:33:53;;;;;;;8.90;6.55;;;;;;;7.02;62.95;100441.10;2429888;81;25727;-86
2020/12/26 15:37:14;;;;;;;7.70;6.15;;;;;;;6.97;62.84;100446.92;2435525;79;25730;-85
2020/12/26 15:41:05;;;;;;;9.83;6.85;;;;;;;6.89;62.87;100450.52;2382637;81;25749;-86
2020/12/26 15:49:30;;;;;;;8.90;5.60;;;;;;;6.78;62.72;100452.69;2325178;78;26580;-86
2020/12/26 15:52:52;;;;;;;11.80;5.75;;;;;;;6.70;62.54;100463.56;2318157;83;26420;-85
2020/12/26 15:56:13;;;;;;;15.93;6.50;;;;;;;6.65;62.58;100460.80;2284575;84;25717;-89
2020/12/26 15:59:36;;;;;;;8.78;6.80;;;;;;;6.58;62.52;100460.04;2251677;86;25772;-87
2020/12/26 16:02:59;;;;;;;8.60;6.85;;;;;;;6.53;62.57;100444.33;2243062;86;25557;-89
2020/12/26 16:06:21;;;;;;;9.53;6.50;;;;;;;6.49;62.57;100454.09;2252408;86;25626;-86
2020/12/26 16:09:43;;;;;;;9.35;6.25;;;;;;;6.45;62.58;100447.02;2332672;83;25723;-82
2020/12/26 16:13:06;;;;;;;9.53;6.53;;;;;;;6.41;62.59;100448.98;2304086;82;26126;-92
2020/12/26 16:16:28;;;;;;;8.98;6.22;;;;;;;6.38;62.62;100455.36;2325493;83;25864;-86
2020/12/26 16:20:31;;;;;;;12.68;6.25;;;;;;;6.35;62.58;100455.23;2314059;84;25905;-93
2020/12/26 16:24:09;;;;;;;9.88;6.53;;;;;;;6.32;62.60;100446.92;2300472;80;26173;-92
2020/12/26 16:27:31;;;;;;;8.53;6.08;;;;;;;6.28;62.42;100454.52;2283103;84;25874;-83
2020/12/26 16:31:03;;;;;;;10.53;6.12;;;;;;;6.28;62.52;100455.80;2345031;83;25844;-80
2020/12/26 16:49:31;;;;;;;10.67;6.47;;;;;;;6.53;62.66;100461.58;2397900;80;25934;-83
2020/12/26 16:52:54;;;;;;;7.03;5.90;;;;;;;6.50;62.71;100458.44;2412704;80;25357;-81
2020/12/26 16:56:18;;;;;;;8.03;5.85;;;;;;;6.53;62.71;100459.86;2422435;80;25638;-85
2020/12/26 16:59:40;;;;;;;9.60;6.42;;;;;;;6.56;62.70;100461.29;2386640;80;25909;-80
2020/12/26 17:03:01;;;;;;;8.33;5.60;;;;;;;6.58;62.71;100457.06;2358818;79;25763;-81
2020/12/26 17:06:31;;;;;;;10.55;5.95;;;;;;;6.61;62.72;100454.60;2363356;80;26287;-84
2020/12/26 17:10:04;;;;;;;7.92;5.75;;;;;;;6.63;62.69;100462.00;2375216;80;25841;-85
2020/12/26 17:13:32;;;;;;;8.38;5.87;;;;;;;6.66;62.70;100457.78;2366373;80;26211;-86
2020/12/26 17:33:02;;;;;;;6.70;5.80;;;;;;;6.76;62.66;100448.27;2481603;78;27931;-86
2020/12/26 17:36:41;;;;;;;10.23;6.20;;;;;;;6.72;62.67;100455.45;2365449;81;25773;-84
2020/12/26 17:45:04;;;;;;;7.37;5.72;;;;;;;6.74;62.67;100465.02;2215456;87;26188;-87
2020/12/26 17:48:38;;;;;;;7.87;5.60;;;;;;;6.74;62.67;100468.03;2129534;90;26397;-87
2020/12/26 17:53:02;;;;;;;7.87;5.77;;;;;;;6.81;62.63;100476.52;2504166;77;26771;-85
2020/12/26 17:57:02;;;;;;;6.70;5.08;;;;;;;6.76;62.66;100471.58;2440395;78;26308;-86
2020/12/26 18:00:27;;;;;;;9.50;5.97;;;;;;;6.76;62.66;100478.94;2427111;80;26385;-81
2020/12/26 18:14:02;;;;;;;9.55;6.22;;;;;;;6.71;61.73;100472.67;2438372;78;25971;-89
2020/12/26 18:17:55;;;;;;;16.67;8.58;;;;;;;6.50;61.01;100470.09;2459152;78;25769;-84
2020/12/26 18:21:25;;;;;;;10.03;7.35;;;;;;;6.31;60.95;100481.80;2458641;79;26050;-90
2020/12/26 18:24:57;;;;;;;14.13;8.20;;;;;;;6.32;61.97;100483.59;2450662;79;25713;-89
2020/12/26 18:28:38;;;;;;;52.45;24.30;;;;;;;6.41;62.79;100487.83;2461276;79;25711;-88
2020/12/26 18:32:00;;;;;;;73.75;34.00;;;;;;;6.69;64.47;100496.36;2429987;80;26171;-89
2020/12/26 18:35:38;;;;;;;100.15;53.38;;;;;;;6.78;63.91;100497.13;2448452;78;25897;-88
2020/12/26 18:39:07;;;;;;;119.42;56.42;;;;;;;6.85;64.34;100505.61;2458749;78;25675;-86
2020/12/26 18:42:29;;;;;;;164.90;79.53;;;;;;;6.88;64.21;100507.03;2449013;79;26163;-89
2020/12/26 18:46:11;;;;;;;179.42;90.50;;;;;;;6.92;64.40;100498.59;2445312;79;26308;-88
2020/12/26 18:49:32;;;;;;;191.65;96.00;;;;;;;6.95;64.39;100506.48;2473412;78;25805;-86
2020/12/26 18:53:01;;;;;;;195.18;96.70;;;;;;;6.99;64.45;100501.02;2454830;78;25954;-87
2020/12/26 18:56:33;;;;;;;184.32;91.97;;;;;;;7.01;64.63;100505.41;2449739;78;26054;-87
2020/12/26 19:00:07;;;;;;;93.80;48.05;;;;;;;7.04;65.03;100512.44;2445560;79;26441;-89
2020/12/26 19:04:06;;;;;;;49.13;27.52;;;;;;;6.96;64.42;100502.19;2450643;78;25970;-86
2020/12/26 19:07:30;;;;;;;38.50;20.48;;;;;;;6.87;63.88;100507.87;2484457;77;26256;-89
2020/12/26 19:11:02;;;;;;;34.30;19.07;;;;;;;6.80;63.38;100502.84;2485250;77;25874;-92
2020/12/26 19:14:34;;;;;;;31.60;14.53;;;;;;;6.72;62.98;100522.39;2483758;77;26306;-90
2020/12/26 19:18:36;;;;;;;24.98;13.38;;;;;;;6.63;62.74;100512.94;2436915;78;26253;-83
2020/12/26 19:21:58;;;;;;;17.32;10.38;;;;;;;6.56;62.52;100507.91;2407989;80;25916;-89
2020/12/26 19:25:28;;;;;;;16.77;11.03;;;;;;;6.52;62.26;100507.31;2389564;80;25881;-91
2020/12/26 19:29:03;;;;;;;18.00;9.93;;;;;;;6.47;62.05;100521.77;2360197;82;25759;-82
2020/12/26 19:33:05;;;;;;;15.45;8.80;;;;;;;6.41;61.90;100516.31;2334408;82;26009;-89
2020/12/26 19:36:40;;;;;;;15.23;8.18;;;;;;;6.35;61.72;100511.78;2331863;82;25845;-91
2020/12/26 19:40:03;;;;;;;12.65;7.67;;;;;;;6.30;61.42;100513.69;2347379;82;25684;-91
2020/12/26 19:43:25;;;;;;;12.68;6.72;;;;;;;6.27;61.41;100530.39;2445456;80;25956;-90
2020/12/26 19:46:52;;;;;;;14.15;6.58;;;;;;;6.23;61.13;100524.61;2444629;79;25908;-89
2020/12/26 19:50:13;;;;;;;14.43;7.42;;;;;;;6.18;61.05;100530.89;2440998;80;26353;-90
2020/12/26 19:58:00;;;;;;;12.05;8.60;;;;;;;6.09;60.93;100531.78;2419687;79;25839;-87
2020/12/26 20:01:21;;;;;;;11.93;7.00;;;;;;;6.02;60.75;100544.86;2426850;80;25811;-91
2020/12/26 20:04:43;;;;;;;12.55;7.12;;;;;;;5.99;60.62;100552.48;2434782;80;26057;-85
2020/12/26 20:08:04;;;;;;;9.88;6.75;;;;;;;5.96;60.56;100547.16;2415196;80;26453;-87
2020/12/26 20:11:32;;;;;;;12.43;7.85;;;;;;;5.91;60.44;100544.77;2425112;80;25891;-83
2020/12/26 20:15:03;;;;;;;12.85;7.35;;;;;;;5.88;60.32;100554.97;2404088;80;25985;-90
2020/12/26 20:23:02;;;;;;;11.73;7.43;;;;;;;5.80;60.20;100552.02;2354910;82;25833;-89
2020/12/26 20:26:40;;;;;;;14.90;7.15;;;;;;;5.76;60.18;100559.58;2356622;81;26611;-90
2020/12/26 20:30:12;;;;;;;12.73;8.03;;;;;;;5.72;60.08;100555.97;2364563;81;26084;-89
2020/12/26 20:34:08;;;;;;;13.88;8.78;;;;;;;5.69;60.17;100556.70;2378218;80;25783;-85
2020/12/26 20:58:06;;;;;;;16.35;8.83;;;;;;;5.55;59.72;100550.02;2375847;81;28887;-89
2020/12/26 21:01:33;;;;;;;16.95;8.75;;;;;;;5.51;59.83;100546.81;2355884;81;26285;-84
2020/12/26 21:08:59;;;;;;;18.87;10.53;;;;;;;5.52;60.00;100547.70;2290194;82;26344;-88
2020/12/26 21:12:21;;;;;;;16.65;9.15;;;;;;;5.52;60.08;100530.89;2258406;84;25841;-87
2020/12/26 21:23:58;;;;;;;15.85;8.63;;;;;;;5.52;60.30;100548.99;2367789;80;26146;-85
2020/12/26 21:27:33;;;;;;;16.82;8.78;;;;;;;5.50;60.41;100545.05;2388597;79;25738;-88
2020/12/26 21:32:22;;;;;;;22.40;10.35;;;;;;;5.51;60.46;100538.18;2300091;83;25796;-86
2020/12/26 21:47:34;;;;;;;16.97;9.57;;;;;;;5.47;60.74;100519.05;2496195;74;25937;-81
2020/12/26 22:38:36;;;;;;;16.42;9.70;;;;;;;5.18;61.21;100481.09;2392693;80;25959;-83
2020/12/26 22:41:57;;;;;;;14.90;9.73;;;;;;;5.15;61.23;100477.06;2250132;84;26215;-86
2020/12/26 22:45:19;;;;;;;15.32;10.35;;;;;;;5.13;61.24;100470.05;2257885;85;25808;-88
2020/12/26 22:49:09;;;;;;;17.77;9.80;;;;;;;5.12;61.25;100470.87;2259688;85;25798;-86
2020/12/26 22:52:30;;;;;;;17.17;11.20;;;;;;;5.10;61.26;100469.94;2271756;84;33496;-84
2020/12/26 22:55:52;;;;;;;15.68;9.88;;;;;;;5.07;61.27;100470.67;2280635;84;25945;-89
2020/12/26 22:59:13;;;;;;;15.23;9.78;;;;;;;5.05;61.24;100470.11;2318943;80;25699;-92
2020/12/26 23:02:35;;;;;;;17.57;11.22;;;;;;;5.04;61.24;100469.64;2419260;80;25727;-91
2020/12/26 23:05:56;;;;;;;14.75;11.00;;;;;;;5.00;61.24;100458.28;2431445;81;25676;-89
2020/12/26 23:09:18;;;;;;;17.80;10.65;;;;;;;4.98;61.24;100456.02;2423143;80;25825;-87
2020/12/26 23:12:44;;;;;;;19.60;10.48;;;;;;;4.96;61.23;100460.21;2426662;80;25738;-94
2020/12/26 23:16:21;;;;;;;16.27;10.10;;;;;;;4.94;61.24;100459.27;2428458;80;25727;-91
2020/12/26 23:19:45;;;;;;;17.60;11.18;;;;;;;4.91;61.24;100459.12;2400839;80;25832;-86
2020/12/26 23:23:06;;;;;;;21.65;10.43;;;;;;;4.89;61.24;100459.06;2410506;80;25755;-87
2020/12/26 23:26:28;;;;;;;17.85;10.30;;;;;;;4.86;61.23;100462.80;2417509;81;25630;-84
2020/12/26 23:29:50;;;;;;;18.25;10.08;;;;;;;4.84;61.24;100457.06;2412154;81;25830;-93
2020/12/26 23:33:14;;;;;;;13.78;9.63;;;;;;;4.82;61.23;100456.09;2417892;81;25232;-91
2020/12/26 23:36:38;;;;;;;14.95;9.03;;;;;;;4.79;61.21;100440.04;2427170;80;25665;-89
2020/12/26 23:40:00;;;;;;;15.43;9.35;;;;;;;4.77;61.23;100452.02;2432189;80;25632;-89
2020/12/26 23:43:21;;;;;;;17.45;9.80;;;;;;;4.74;61.22;100445.00;2433489;81;25646;-91
2020/12/26 23:46:45;;;;;;;13.50;10.00;;;;;;;4.71;61.24;100431.05;2433304;80;25833;-91
2020/12/26 23:50:10;;;;;;;17.55;9.30;;;;;;;4.69;61.22;100434.88;2426151;80;25685;-86
2020/12/26 23:53:31;;;;;;;21.60;10.55;;;;;;;4.67;61.22;100428.73;2427432;80;25815;-87
